Time;durP1;ratioP1;P1;durP2;ratioP2;P2;SDS_P1;SDS_P2;PMS_P1;PMS_P2;Temp;Humidity;BMP_temperature;BMP_pressure;BME280_temperature;BME280_humidity;BME280_pressure;Samples;Min_cycle;Max_cycle;Signal;HPM_P1;HPM_P2
2023/01/28 00:00:53;;;;;;;7.45;4.75;;;3.40;99.90;;;;;;4943004;28;20488;-57
2023/01/28 00:03:21;;;;;;;4.60;3.85;;;3.40;99.90;;;;;;4965334;28;20427;-58
2023/01/28 00:05:47;;;;;;;4.00;3.60;;;3.40;99.90;;;;;;4965516;28;20038;-58
2023/01/28 00:08:13;;;;;;;6.18;4.78;;;3.30;99.90;;;;;;4964713;28;20133;-57
2023/01/28 00:10:40;;;;;;;6.07;5.00;;;3.30;99.90;;;;;;4956967;28;20034;-58
2023/01/28 00:13:06;;;;;;;6.45;4.72;;;3.30;99.90;;;;;;4975696;28;20197;-58
2023/01/28 00:15:32;;;;;;;5.57;4.60;;;3.30;99.90;;;;;;4965936;28;20488;-58
2023/01/28 00:17:57;;;;;;;5.28;4.20;;;3.30;99.90;;;;;;4963180;28;20046;-58
2023/01/28 00:20:23;;;;;;;4.88;3.95;;;3.20;99.90;;;;;;4946472;28;20046;-58
2023/01/28 00:22:49;;;;;;;4.57;3.80;;;3.20;99.90;;;;;;4974524;28;20034;-58
2023/01/28 00:25:15;;;;;;;5.03;4.50;;;3.30;99.90;;;;;;4956814;28;20038;-58
2023/01/28 00:27:41;;;;;;;6.80;5.18;;;3.30;99.90;;;;;;4978574;28;20404;-58
2023/01/28 00:30:07;;;;;;;5.95;4.38;;;3.30;99.90;;;;;;4962522;28;20046;-58
2023/01/28 00:32:36;;;;;;;5.70;5.10;;;3.30;99.90;;;;;;4955759;28;20462;-58
2023/01/28 00:35:02;;;;;;;9.05;5.70;;;3.30;99.90;;;;;;4961039;28;20038;-58
2023/01/28 00:37:27;;;;;;;7.90;6.38;;;3.40;99.90;;;;;;4962245;28;20034;-58
2023/01/28 00:39:53;;;;;;;7.75;5.65;;;3.40;99.90;;;;;;4958404;28;20038;-58
2023/01/28 00:42:19;;;;;;;8.18;5.88;;;3.30;99.90;;;;;;4946186;28;20053;-58
2023/01/28 00:44:44;;;;;;;6.90;5.65;;;3.30;99.90;;;;;;4964854;28;20508;-58
2023/01/28 00:47:10;;;;;;;6.63;5.20;;;3.30;99.90;;;;;;4980531;28;20276;-58
2023/01/28 00:49:36;;;;;;;8.02;5.65;;;3.30;99.90;;;;;;4958335;28;20437;-58
2023/01/28 00:52:02;;;;;;;6.55;5.20;;;3.40;99.90;;;;;;4974389;28;20042;-58
2023/01/28 00:54:31;;;;;;;6.85;5.53;;;3.30;99.90;;;;;;4947642;28;20544;-58
2023/01/28 00:56:56;;;;;;;6.68;4.72;;;3.30;99.90;;;;;;4963926;28;20129;-58
2023/01/28 00:59:22;;;;;;;7.05;5.88;;;3.30;99.90;;;;;;4963021;28;20469;-58
2023/01/28 01:01:51;;;;;;;6.63;5.78;;;3.20;99.90;;;;;;4961159;28;20034;-58
2023/01/28 01:04:25;;;;;;;7.97;4.85;;;3.30;99.90;;;;;;4928992;28;20405;-58
2023/01/28 01:06:51;;;;;;;4.35;3.75;;;3.30;99.90;;;;;;4959011;28;20054;-58
2023/01/28 01:09:17;;;;;;;4.18;3.20;;;3.30;99.90;;;;;;4946057;28;20065;-58
2023/01/28 01:11:42;;;;;;;5.30;3.90;;;3.30;99.90;;;;;;4948125;28;20065;-58
2023/01/28 01:14:09;;;;;;;3.90;3.03;;;3.30;99.90;;;;;;4948351;28;21038;-58
2023/01/28 01:16:37;;;;;;;4.78;3.05;;;3.30;99.90;;;;;;4945100;28;20963;-58
2023/01/28 01:19:03;;;;;;;4.65;2.80;;;3.30;99.90;;;;;;4960594;28;20085;-57
2023/01/28 01:21:30;;;;;;;5.30;3.08;;;3.30;99.90;;;;;;4945268;28;20145;-58
2023/01/28 01:23:55;;;;;;;4.00;3.42;;;3.20;99.90;;;;;;4958073;28;20034;-58
2023/01/28 01:26:22;;;;;;;3.67;2.70;;;3.20;99.90;;;;;;4948271;28;20049;-59
2023/01/28 01:28:53;;;;;;;3.75;2.60;;;3.20;99.90;;;;;;4965298;28;20382;-58
2023/01/28 01:31:20;;;;;;;5.07;3.22;;;3.20;99.90;;;;;;4960916;28;20073;-58
2023/01/28 01:33:48;;;;;;;4.45;2.63;;;3.20;99.90;;;;;;4954611;28;20401;-58
2023/01/28 01:36:16;;;;;;;5.55;3.47;;;3.30;99.90;;;;;;4963729;28;20131;-58
2023/01/28 01:38:42;;;;;;;4.38;3.20;;;3.30;99.90;;;;;;4952493;28;20485;-58
2023/01/28 01:41:12;;;;;;;4.47;3.38;;;3.30;99.90;;;;;;4965745;28;20144;-58
2023/01/28 01:44:00;;;;;;;3.83;3.22;;;3.30;99.90;;;;;;4981740;28;20042;-59
2023/01/28 01:46:28;;;;;;;3.50;2.80;;;3.30;99.90;;;;;;4959387;28;20509;-58
2023/01/28 01:48:56;;;;;;;3.08;2.78;;;3.30;99.90;;;;;;4954588;28;20034;-58
2023/01/28 01:51:28;;;;;;;3.08;2.75;;;3.30;99.90;;;;;;4955762;28;20054;-58
2023/01/28 01:53:56;;;;;;;3.75;3.03;;;3.30;99.90;;;;;;4967048;28;20049;-58
2023/01/28 01:56:27;;;;;;;4.18;3.22;;;3.30;99.90;;;;;;4967935;28;20042;-58
2023/01/28 01:58:55;;;;;;;4.28;3.38;;;3.30;99.90;;;;;;4979940;28;20460;-58
2023/01/28 02:01:23;;;;;;;5.38;3.00;;;3.30;99.90;;;;;;4961249;28;20094;-58
2023/01/28 02:04:11;;;;;;;5.55;3.40;;;3.30;99.90;;;;;;4965714;28;20045;-58
2023/01/28 02:06:38;;;;;;;3.22;2.78;;;3.20;99.90;;;;;;4963297;28;20050;-58
2023/01/28 02:09:24;;;;;;;7.55;3.15;;;3.20;99.90;;;;;;4964511;28;20149;-57
2023/01/28 02:12:00;;;;;;;5.03;3.40;;;3.20;99.90;;;;;;4971988;28;20042;-57
2023/01/28 02:14:30;;;;;;;3.83;2.97;;;3.20;99.90;;;;;;4986381;28;20054;-58
2023/01/28 02:16:56;;;;;;;6.53;3.70;;;3.20;99.90;;;;;;4969041;28;20050;-58
2023/01/28 02:19:28;;;;;;;4.63;3.30;;;3.20;99.90;;;;;;4979873;28;20445;-58
2023/01/28 02:22:11;;;;;;;5.47;3.40;;;3.20;99.90;;;;;;4977096;28;20034;-58
2023/01/28 02:24:56;;;;;;;5.72;3.35;;;3.20;99.90;;;;;;4960674;28;20505;-58
2023/01/28 02:27:53;;;;;;;4.55;3.80;;;3.20;99.90;;;;;;4963419;28;20050;-58
2023/01/28 02:30:23;;;;;;;5.80;3.47;;;3.20;99.90;;;;;;4962965;28;20043;-58
2023/01/28 02:32:59;;;;;;;4.80;3.78;;;3.20;99.90;;;;;;4985235;28;20057;-58
2023/01/28 02:35:45;;;;;;;6.65;3.38;;;3.20;99.90;;;;;;4969038;28;20425;-58
2023/01/28 02:38:17;;;;;;;7.88;3.85;;;3.30;99.90;;;;;;4962525;28;20049;-58
2023/01/28 02:41:05;;;;;;;4.72;3.60;;;3.30;99.90;;;;;;4964356;28;20051;-58
2023/01/28 02:43:41;;;;;;;4.93;3.65;;;3.30;99.90;;;;;;4984124;28;20519;-57
2023/01/28 02:49:10;;;;;;;4.55;3.50;;;3.30;99.90;;;;;;4981674;28;20050;-58
2023/01/28 02:51:42;;;;;;;5.32;4.00;;;3.30;99.90;;;;;;4964282;28;20117;-57
2023/01/28 02:54:13;;;;;;;4.90;3.97;;;3.30;99.90;;;;;;4963304;28;20612;-58
2023/01/28 02:56:46;;;;;;;5.38;3.50;;;3.30;99.90;;;;;;4965332;28;20393;-58
2023/01/28 02:59:29;;;;;;;5.10;4.32;;;3.20;99.90;;;;;;4962042;28;20069;-58
2023/01/28 03:02:19;;;;;;;5.22;3.67;;;3.20;99.90;;;;;;4967308;28;20053;-57
2023/01/28 03:05:10;;;;;;;5.55;4.28;;;3.20;99.90;;;;;;4962231;28;20061;-58
2023/01/28 03:07:38;;;;;;;7.50;4.70;;;3.20;99.90;;;;;;4961625;28;20045;-57
2023/01/28 03:10:09;;;;;;;5.90;3.50;;;3.20;99.90;;;;;;4966335;28;20053;-59
2023/01/28 03:39:05;;;;;;;6.80;4.22;;;3.20;99.90;;;;;;4956052;28;20050;-58
2023/01/28 03:41:31;;;;;;;5.00;4.22;;;3.20;99.90;;;;;;4969779;28;20050;-59
2023/01/28 03:43:57;;;;;;;4.80;3.95;;;3.20;99.90;;;;;;4964230;28;20045;-58
2023/01/28 03:46:22;;;;;;;4.78;3.78;;;3.20;99.90;;;;;;4943993;28;20112;-58
2023/01/28 03:48:48;;;;;;;6.47;5.15;;;3.20;99.90;;;;;;4960891;28;20046;-57
2023/01/28 03:51:15;;;;;;;5.45;4.10;;;3.10;99.90;;;;;;4981349;28;20104;-58
2023/01/28 03:53:41;;;;;;;5.13;4.30;;;3.10;99.90;;;;;;4941668;28;20043;-57
2023/01/28 03:56:07;;;;;;;6.43;4.35;;;3.10;99.90;;;;;;4962186;28;20072;-58
2023/01/28 03:58:45;;;;;;;4.68;4.03;;;3.10;99.90;;;;;;4966475;28;20054;-58
2023/01/28 04:01:13;;;;;;;7.57;4.45;;;3.10;99.90;;;;;;4967733;28;20055;-58
2023/01/28 04:03:42;;;;;;;4.90;4.10;;;3.10;99.90;;;;;;4958480;28;20074;-58
2023/01/28 04:06:09;;;;;;;4.20;3.70;;;3.10;99.90;;;;;;4971520;28;21638;-58
2023/01/28 04:08:34;;;;;;;4.15;3.63;;;3.10;99.90;;;;;;4980857;28;20073;-58
2023/01/28 04:11:14;;;;;;;5.40;3.75;;;3.10;99.90;;;;;;4958281;28;20489;-58
2023/01/28 04:13:41;;;;;;;5.13;3.60;;;3.10;99.90;;;;;;4950634;28;20045;-58
2023/01/28 04:16:07;;;;;;;6.13;4.25;;;3.10;99.90;;;;;;4964281;28;20046;-58
2023/01/28 04:18:34;;;;;;;5.47;4.47;;;3.10;99.90;;;;;;4946554;28;20097;-58
2023/01/28 04:21:03;;;;;;;4.82;4.03;;;3.10;99.90;;;;;;4941840;28;20118;-59
2023/01/28 04:23:28;;;;;;;6.45;4.38;;;3.10;99.90;;;;;;4961334;28;20042;-58
2023/01/28 04:25:55;;;;;;;6.72;4.15;;;3.00;99.90;;;;;;4959437;28;20057;-58
2023/01/28 04:28:21;;;;;;;6.45;4.30;;;3.10;99.90;;;;;;4960575;28;20043;-58
2023/01/28 04:30:51;;;;;;;6.20;4.82;;;3.00;99.90;;;;;;4944443;28;20088;-58
2023/01/28 04:33:17;;;;;;;6.80;4.53;;;3.00;99.90;;;;;;4942521;28;20035;-58
2023/01/28 04:35:42;;;;;;;8.25;5.07;;;3.00;99.90;;;;;;4946977;28;20046;-58
2023/01/28 04:38:08;;;;;;;5.95;4.45;;;3.10;99.90;;;;;;4960688;28;20408;-58
2023/01/28 04:40:34;;;;;;;5.82;4.65;;;3.00;99.90;;;;;;4966586;28;20050;-58
2023/01/28 04:43:00;;;;;;;5.90;4.30;;;3.00;99.90;;;;;;4962840;28;20093;-59
2023/01/28 04:45:25;;;;;;;6.60;4.90;;;3.00;99.90;;;;;;4943206;28;20232;-59
2023/01/28 04:47:54;;;;;;;5.97;4.80;;;3.00;99.90;;;;;;4960998;28;20357;-58
2023/01/28 04:50:20;;;;;;;5.10;3.60;;;2.90;99.90;;;;;;4942053;28;20397;-58
2023/01/28 04:52:45;;;;;;;6.78;5.22;;;2.90;99.90;;;;;;4978603;28;20040;-58
2023/01/28 04:55:11;;;;;;;5.28;4.05;;;2.90;99.90;;;;;;4961172;28;20465;-58
2023/01/28 04:57:37;;;;;;;6.15;4.40;;;2.90;99.90;;;;;;4964905;28;20038;-58
2023/01/28 05:00:04;;;;;;;5.78;4.07;;;3.00;99.90;;;;;;4945231;28;20507;-58
2023/01/28 05:02:30;;;;;;;4.68;4.05;;;3.00;99.90;;;;;;4944273;28;20054;-58
2023/01/28 05:04:55;;;;;;;9.48;5.25;;;3.00;99.90;;;;;;4959363;28;20034;-58
2023/01/28 05:07:21;;;;;;;5.95;4.00;;;3.00;99.90;;;;;;4979639;23;20038;-63
2023/01/28 05:09:47;;;;;;;10.75;4.60;;;3.00;99.90;;;;;;4992552;28;20273;-62
2023/01/28 05:12:13;;;;;;;5.70;4.65;;;3.00;99.90;;;;;;4965414;28;20298;-60
2023/01/28 05:14:39;;;;;;;7.00;4.15;;;3.00;99.90;;;;;;4978132;28;20422;-62
2023/01/28 05:17:05;;;;;;;6.40;4.32;;;3.00;99.90;;;;;;4979510;28;20485;-61
2023/01/28 05:19:30;;;;;;;7.07;4.38;;;3.00;99.90;;;;;;4953022;28;20058;-61
2023/01/28 05:21:59;;;;;;;5.03;4.22;;;3.00;99.90;;;;;;4969980;28;20739;-61
2023/01/28 05:24:25;;;;;;;5.88;4.40;;;3.00;99.90;;;;;;4959241;28;20034;-61
2023/01/28 05:26:50;;;;;;;6.22;4.25;;;3.00;99.90;;;;;;4993518;28;20069;-61
2023/01/28 05:29:16;;;;;;;7.93;4.40;;;3.00;99.90;;;;;;4992900;28;20038;-61
2023/01/28 05:31:42;;;;;;;5.82;4.50;;;2.90;99.90;;;;;;4975203;28;20060;-60
2023/01/28 05:34:07;;;;;;;5.85;4.30;;;3.00;99.90;;;;;;4976002;28;20138;-60
2023/01/28 05:36:33;;;;;;;5.88;4.60;;;2.90;99.90;;;;;;4959067;28;20532;-62
2023/01/28 05:38:59;;;;;;;5.30;4.25;;;2.90;99.90;;;;;;4977742;28;20354;-61
2023/01/28 05:41:27;;;;;;;7.53;4.82;;;2.90;99.90;;;;;;4972925;28;20043;-61
2023/01/28 05:43:53;;;;;;;5.53;4.47;;;2.90;99.90;;;;;;4976035;28;20043;-61
2023/01/28 05:46:18;;;;;;;7.20;4.85;;;2.90;99.90;;;;;;4957127;28;20044;-61
2023/01/28 05:48:44;;;;;;;5.28;4.15;;;2.90;99.90;;;;;;4980698;28;20046;-62
2023/01/28 05:51:10;;;;;;;5.75;4.60;;;2.90;99.90;;;;;;4979380;28;20063;-61
2023/01/28 05:53:36;;;;;;;5.85;4.80;;;2.90;99.90;;;;;;4966952;28;20043;-62
2023/01/28 05:56:02;;;;;;;7.07;4.97;;;2.90;99.90;;;;;;4966627;28;20413;-62
2023/01/28 05:58:30;;;;;;;6.38;4.78;;;2.90;99.90;;;;;;4974077;28;20060;-61
2023/01/28 06:00:56;;;;;;;7.05;4.63;;;2.90;99.90;;;;;;4967587;28;20043;-61
2023/01/28 06:03:22;;;;;;;6.10;4.55;;;2.80;99.90;;;;;;4974496;28;20046;-62
2023/01/28 06:05:48;;;;;;;7.68;5.57;;;2.80;99.90;;;;;;4979461;28;20064;-59
2023/01/28 06:08:14;;;;;;;6.80;5.10;;;2.80;99.90;;;;;;4971779;28;20056;-61
2023/01/28 06:10:39;;;;;;;6.40;5.15;;;2.80;99.90;;;;;;4976698;28;20115;-61
2023/01/28 06:13:05;;;;;;;7.10;5.32;;;2.80;99.90;;;;;;4972971;28;20046;-60
2023/01/28 06:15:31;;;;;;;8.77;5.25;;;2.80;99.90;;;;;;4972452;28;20471;-61
2023/01/28 06:17:58;;;;;;;5.88;4.80;;;2.90;99.90;;;;;;4975812;28;20050;-62
2023/01/28 06:20:24;;;;;;;7.65;5.82;;;2.80;99.90;;;;;;4963587;28;20065;-62
2023/01/28 06:22:52;;;;;;;7.97;5.13;;;2.80;99.90;;;;;;4976010;28;20947;-61
2023/01/28 06:25:18;;;;;;;8.73;6.00;;;2.80;99.90;;;;;;4971106;28;20062;-61
2023/01/28 06:27:45;;;;;;;7.75;5.28;;;2.80;99.90;;;;;;4963993;28;20513;-58
2023/01/28 06:30:11;;;;;;;8.75;5.22;;;2.80;99.90;;;;;;4975000;28;20128;-61
2023/01/28 06:32:37;;;;;;;6.70;5.25;;;2.80;99.90;;;;;;4982828;28;20506;-60
2023/01/28 06:35:03;;;;;;;7.85;5.85;;;2.80;99.90;;;;;;4960238;28;20042;-61
2023/01/28 06:37:29;;;;;;;9.35;6.70;;;2.80;99.90;;;;;;4966982;28;20039;-62
2023/01/28 06:39:54;;;;;;;7.97;5.70;;;2.70;99.90;;;;;;4982439;28;20053;-62
2023/01/28 06:42:20;;;;;;;7.45;5.47;;;2.70;99.90;;;;;;4965671;28;20136;-61
2023/01/28 06:44:46;;;;;;;8.63;5.35;;;2.70;99.90;;;;;;5002416;28;20160;-60
2023/01/28 06:47:14;;;;;;;7.68;5.50;;;2.70;99.90;;;;;;4986440;28;20069;-62
2023/01/28 06:49:40;;;;;;;7.93;6.03;;;2.70;99.90;;;;;;4980376;28;20045;-59
2023/01/28 06:52:06;;;;;;;8.90;5.93;;;2.80;99.90;;;;;;4994209;28;20038;-60
2023/01/28 06:54:32;;;;;;;7.25;5.70;;;2.70;99.90;;;;;;4982080;28;20540;-61
2023/01/28 06:56:58;;;;;;;7.95;6.18;;;2.70;99.90;;;;;;4972600;28;20046;-61
2023/01/28 06:59:23;;;;;;;8.10;6.60;;;2.60;99.90;;;;;;4978691;28;20110;-61
2023/01/28 07:01:49;;;;;;;9.10;7.28;;;2.50;99.90;;;;;;4970817;28;20485;-61
2023/01/28 07:04:15;;;;;;;12.35;9.73;;;2.50;99.90;;;;;;4979464;28;20216;-61
2023/01/28 07:06:44;;;;;;;16.10;11.30;;;2.50;99.90;;;;;;4974635;28;20050;-61
2023/01/28 07:09:10;;;;;;;10.70;9.15;;;2.50;99.90;;;;;;4979992;28;20046;-62
2023/01/28 07:11:35;;;;;;;12.45;9.23;;;2.40;99.90;;;;;;4973518;28;20148;-61
2023/01/28 07:14:01;;;;;;;16.17;11.15;;;2.40;99.90;;;;;;4971768;28;20046;-61
2023/01/28 07:16:27;;;;;;;14.27;11.35;;;2.40;99.90;;;;;;4960701;28;20037;-62
2023/01/28 07:18:53;;;;;;;10.63;7.45;;;2.30;99.90;;;;;;4956042;28;20050;-61
2023/01/28 07:21:18;;;;;;;10.23;7.70;;;2.30;99.90;;;;;;4966762;28;20050;-62
2023/01/28 07:23:44;;;;;;;11.02;8.43;;;2.30;99.90;;;;;;4982682;28;20050;-61
2023/01/28 07:26:10;;;;;;;14.63;9.50;;;2.20;99.90;;;;;;4981546;28;20508;-60
2023/01/28 07:28:35;;;;;;;11.73;8.13;;;2.20;99.90;;;;;;4977946;28;20039;-60
2023/01/28 07:31:01;;;;;;;11.52;8.57;;;2.20;99.90;;;;;;4970719;28;20596;-62
2023/01/28 07:33:27;;;;;;;12.27;9.00;;;2.10;99.90;;;;;;4977242;28;20042;-62
2023/01/28 07:35:53;;;;;;;12.48;9.55;;;2.10;99.90;;;;;;4969953;28;20480;-62
2023/01/28 07:38:18;;;;;;;13.02;9.63;;;2.10;99.90;;;;;;4967134;28;20088;-62
2023/01/28 07:40:45;;;;;;;10.32;8.43;;;2.10;99.90;;;;;;4982709;28;20101;-60
2023/01/28 07:43:11;;;;;;;12.13;9.73;;;2.00;99.90;;;;;;4989714;28;20055;-60
2023/01/28 07:45:37;;;;;;;12.50;9.70;;;2.00;99.90;;;;;;4992171;28;20038;-59
2023/01/28 07:48:05;;;;;;;12.88;10.55;;;1.90;99.90;;;;;;4975226;28;20046;-61
2023/01/28 07:50:34;;;;;;;10.57;7.20;;;2.00;99.90;;;;;;4965964;28;20085;-60
2023/01/28 07:53:06;;;;;;;10.25;7.95;;;1.90;99.90;;;;;;4962017;28;20038;-62
2023/01/28 07:55:34;;;;;;;12.15;8.82;;;1.90;99.90;;;;;;4973507;28;20105;-62
2023/01/28 07:58:01;;;;;;;10.80;8.95;;;1.90;99.90;;;;;;4991441;28;20052;-61
2023/01/28 08:00:29;;;;;;;12.05;9.45;;;2.00;99.90;;;;;;4967380;28;20202;-61
2023/01/28 08:02:57;;;;;;;14.02;9.85;;;1.90;99.90;;;;;;4962184;28;20282;-61
2023/01/28 08:05:24;;;;;;;13.32;11.05;;;2.00;99.90;;;;;;4973373;28;20401;-61
2023/01/28 08:07:49;;;;;;;15.55;11.73;;;2.00;99.90;;;;;;4976719;28;20070;-60
2023/01/28 08:10:16;;;;;;;12.75;9.88;;;2.00;99.90;;;;;;4976656;28;20046;-60
2023/01/28 08:13:00;;;;;;;14.15;10.57;;;2.10;99.90;;;;;;4976513;28;20046;-60
2023/01/28 08:15:27;;;;;;;12.60;10.27;;;2.10;99.90;;;;;;4969406;28;20104;-60
2023/01/28 08:17:55;;;;;;;13.15;9.27;;;2.10;99.90;;;;;;4974924;28;20043;-61
2023/01/28 08:20:21;;;;;;;12.50;9.93;;;2.10;99.90;;;;;;4994816;28;20046;-60
2023/01/28 08:22:47;;;;;;;14.82;9.35;;;2.10;99.90;;;;;;4979648;28;20486;-59
2023/01/28 08:25:13;;;;;;;13.75;9.20;;;2.20;99.90;;;;;;4963277;28;20045;-60
2023/01/28 08:27:39;;;;;;;15.60;9.65;;;2.20;99.90;;;;;;4978038;28;20043;-61
2023/01/28 08:30:05;;;;;;;12.25;10.27;;;2.20;99.90;;;;;;4979061;28;20038;-61
2023/01/28 08:32:31;;;;;;;15.02;10.27;;;2.30;99.90;;;;;;4970108;28;20512;-61
2023/01/28 08:34:57;;;;;;;13.27;9.75;;;2.30;99.90;;;;;;4971103;28;20446;-61
2023/01/28 08:37:23;;;;;;;12.13;9.38;;;2.40;99.90;;;;;;4991528;28;20783;-61
2023/01/28 08:39:49;;;;;;;13.23;10.43;;;2.40;99.90;;;;;;4965714;28;20050;-60
2023/01/28 08:42:15;;;;;;;12.88;9.50;;;2.40;99.90;;;;;;4962391;28;20157;-61
2023/01/28 08:44:41;;;;;;;12.55;9.48;;;2.40;99.90;;;;;;4973378;28;20973;-60
2023/01/28 08:47:07;;;;;;;11.90;8.95;;;2.40;99.90;;;;;;4965083;28;20038;-61
2023/01/28 08:49:33;;;;;;;13.07;9.50;;;2.40;99.90;;;;;;4989312;28;20065;-60
2023/01/28 08:51:58;;;;;;;11.93;8.88;;;2.50;99.90;;;;;;4968397;28;20100;-60
2023/01/28 08:54:24;;;;;;;12.90;8.75;;;2.50;99.90;;;;;;4985054;28;20042;-61
2023/01/28 08:56:50;;;;;;;12.65;9.70;;;2.40;99.90;;;;;;4975607;28;20421;-61
2023/01/28 08:59:16;;;;;;;13.38;9.52;;;2.50;99.90;;;;;;4980955;28;20047;-62
2023/01/28 09:01:42;;;;;;;13.23;9.55;;;2.50;99.90;;;;;;4979909;28;20053;-62
2023/01/28 09:04:08;;;;;;;13.77;10.40;;;2.50;99.90;;;;;;4997948;28;20145;-62
2023/01/28 09:06:34;;;;;;;16.20;9.70;;;2.60;99.90;;;;;;4977004;28;20038;-61
2023/01/28 09:08:59;;;;;;;12.52;9.45;;;2.60;99.90;;;;;;4961251;28;20045;-61
2023/01/28 09:11:29;;;;;;;14.13;9.55;;;2.70;99.90;;;;;;4973186;28;20049;-60
2023/01/28 09:13:59;;;;;;;19.50;10.90;;;2.70;99.90;;;;;;4980124;28;20077;-62
2023/01/28 09:16:25;;;;;;;17.20;9.20;;;2.70;99.90;;;;;;4973608;28;20049;-62
2023/01/28 09:18:52;;;;;;;15.95;9.77;;;2.70;99.90;;;;;;4994125;28;20043;-62
2023/01/28 09:21:19;;;;;;;14.98;9.35;;;2.70;99.90;;;;;;4972463;28;20072;-61
2023/01/28 09:23:47;;;;;;;14.13;10.38;;;2.80;99.90;;;;;;4968296;28;20038;-60
2023/01/28 09:26:13;;;;;;;22.50;11.68;;;2.80;99.90;;;;;;4979311;28;20090;-61
2023/01/28 09:28:39;;;;;;;13.57;9.93;;;2.90;99.90;;;;;;4973656;28;20270;-61
2023/01/28 09:31:07;;;;;;;14.57;9.80;;;2.90;99.90;;;;;;4972029;28;20057;-61
2023/01/28 09:33:34;;;;;;;12.35;9.25;;;3.00;99.90;;;;;;4974983;28;20046;-62
2023/01/28 09:36:04;;;;;;;17.50;9.77;;;3.00;99.90;;;;;;4982139;28;20038;-62
2023/01/28 09:38:30;;;;;;;13.45;8.90;;;3.10;99.90;;;;;;4964008;28;20447;-61
2023/01/28 09:40:57;;;;;;;12.52;8.65;;;3.10;99.90;;;;;;4971949;28;20047;-62
2023/01/28 09:43:46;;;;;;;13.90;9.30;;;3.20;99.90;;;;;;4973862;28;20428;-60
2023/01/28 09:46:14;;;;;;;14.65;9.13;;;3.30;99.90;;;;;;4972004;28;20096;-60
2023/01/28 09:48:43;;;;;;;12.40;8.57;;;3.40;99.90;;;;;;4978262;28;20045;-60
2023/01/28 09:51:21;;;;;;;10.88;7.80;;;3.60;99.90;;;;;;4975352;28;20094;-61
2023/01/28 09:53:54;;;;;;;11.48;7.63;;;3.60;99.90;;;;;;4974270;28;20046;-61
2023/01/28 09:56:30;;;;;;;10.90;7.90;;;3.70;99.90;;;;;;4992302;28;20547;-61
2023/01/28 09:59:18;;;;;;;10.45;7.22;;;3.70;99.90;;;;;;4970920;28;20042;-60
2023/01/28 10:02:14;;;;;;;10.63;7.00;;;3.70;99.90;;;;;;4955092;28;20386;-61
2023/01/28 10:04:58;;;;;;;8.75;6.35;;;3.70;99.90;;;;;;4976436;28;20041;-60
2023/01/28 10:07:58;;;;;;;12.70;7.22;;;3.70;99.90;;;;;;4977845;28;20054;-60
2023/01/28 10:10:48;;;;;;;15.68;10.70;;;3.80;99.90;;;;;;4965280;28;20057;-62
2023/01/28 10:13:22;;;;;;;9.63;7.38;;;3.80;99.90;;;;;;4964278;28;20051;-61
2023/01/28 10:16:14;;;;;;;13.40;7.97;;;4.00;99.90;;;;;;4981224;28;20474;-61
2023/01/28 10:19:13;;;;;;;8.75;6.60;;;4.20;99.90;;;;;;4976725;28;20395;-61
2023/01/28 10:21:45;;;;;;;12.07;6.78;;;4.40;99.90;;;;;;4968449;28;20050;-61
2023/01/28 10:24:19;;;;;;;10.13;6.43;;;4.50;99.90;;;;;;4983751;28;20412;-60
2023/01/28 10:26:45;;;;;;;13.02;8.90;;;4.50;99.90;;;;;;4965764;28;20047;-62
2023/01/28 10:29:17;;;;;;;13.57;8.90;;;4.50;99.90;;;;;;4974495;28;20400;-62
2023/01/28 10:32:07;;;;;;;15.50;9.55;;;4.50;99.90;;;;;;4970029;28;20129;-62
2023/01/28 10:34:33;;;;;;;11.48;7.32;;;4.50;99.90;;;;;;4975937;28;20121;-61
2023/01/28 10:36:59;;;;;;;12.40;8.70;;;4.50;99.90;;;;;;4981609;28;20563;-62
2023/01/28 10:39:27;;;;;;;10.77;7.95;;;4.50;99.90;;;;;;4976226;28;20456;-61
2023/01/28 10:41:55;;;;;;;14.25;10.75;;;4.50;99.90;;;;;;4974670;28;20037;-62
2023/01/28 10:44:35;;;;;;;10.27;8.48;;;4.50;99.90;;;;;;4979600;28;20129;-61
2023/01/28 10:47:28;;;;;;;11.32;8.10;;;4.50;99.90;;;;;;4975207;28;20202;-61
2023/01/28 10:49:58;;;;;;;13.38;8.13;;;4.60;99.90;;;;;;4979355;28;20069;-60
2023/01/28 10:52:24;;;;;;;9.65;7.22;;;4.60;99.90;;;;;;4979294;28;20048;-61
2023/01/28 10:54:59;;;;;;;11.73;7.32;;;4.60;99.90;;;;;;4975367;28;20054;-60
2023/01/28 10:57:25;;;;;;;11.15;8.43;;;4.70;99.90;;;;;;4974395;28;20055;-60
2023/01/28 10:59:50;;;;;;;10.90;7.72;;;4.70;99.90;;;;;;4972661;28;20039;-61
2023/01/28 11:02:31;;;;;;;11.20;6.80;;;4.70;99.90;;;;;;4973332;28;20413;-63
2023/01/28 11:05:02;;;;;;;8.75;6.60;;;4.70;99.90;;;;;;4977662;28;20397;-61
2023/01/28 11:07:27;;;;;;;9.38;6.80;;;4.70;99.90;;;;;;4959513;28;20129;-61
2023/01/28 11:09:53;;;;;;;11.60;6.97;;;4.80;99.90;;;;;;4978118;23;20046;-58
2023/01/28 11:12:25;;;;;;;11.70;7.75;;;4.80;99.90;;;;;;4986817;28;20123;-56
2023/01/28 11:14:52;;;;;;;9.15;6.82;;;4.80;99.90;;;;;;4943967;28;20104;-59
2023/01/28 11:17:21;;;;;;;11.25;7.75;;;4.80;99.90;;;;;;4991442;28;20047;-58
2023/01/28 11:19:47;;;;;;;11.70;7.75;;;4.70;99.90;;;;;;4961704;28;20047;-58
2023/01/28 11:22:23;;;;;;;14.63;7.75;;;4.70;99.90;;;;;;4962774;28;20045;-54
2023/01/28 11:24:53;;;;;;;11.45;7.35;;;4.80;99.90;;;;;;4994290;28;20057;-59
2023/01/28 11:27:24;;;;;;;12.38;8.80;;;4.90;99.90;;;;;;4963213;28;20070;-56
2023/01/28 11:29:51;;;;;;;10.02;6.75;;;4.90;99.90;;;;;;4996400;28;20077;-59
2023/01/28 11:32:19;;;;;;;12.20;8.10;;;4.90;99.90;;;;;;4993849;28;20045;-59
2023/01/28 11:34:50;;;;;;;11.93;7.57;;;4.90;99.90;;;;;;4961999;28;20239;-57
2023/01/28 11:37:20;;;;;;;10.60;7.22;;;4.90;99.90;;;;;;4958329;28;20120;-55
2023/01/28 11:39:46;;;;;;;10.10;7.70;;;4.90;99.90;;;;;;4964197;28;20082;-59
2023/01/28 11:42:18;;;;;;;14.20;8.30;;;4.90;99.90;;;;;;4962506;28;20405;-59
2023/01/28 11:44:45;;;;;;;11.15;7.60;;;5.00;99.90;;;;;;4967084;28;20197;-56
2023/01/28 11:47:19;;;;;;;12.27;7.93;;;5.00;99.90;;;;;;4963302;28;20289;-56
2023/01/28 11:50:03;;;;;;;12.38;7.28;;;5.10;99.90;;;;;;4962728;28;20038;-56
2023/01/28 11:52:45;;;;;;;11.25;7.55;;;5.20;99.90;;;;;;4977406;28;20046;-53
2023/01/28 11:55:23;;;;;;;10.68;6.82;;;5.20;99.90;;;;;;4991214;28;20055;-55
2023/01/28 11:58:00;;;;;;;10.60;7.57;;;5.20;99.90;;;;;;4975678;28;20055;-57
2023/01/28 12:00:30;;;;;;;10.20;6.55;;;5.20;99.90;;;;;;4993916;28;20039;-57
2023/01/28 12:03:37;;;;;;;10.80;7.05;;;5.30;99.90;;;;;;4991290;28;20049;-57
2023/01/28 12:06:21;;;;;;;10.43;7.65;;;5.30;99.90;;;;;;4962979;28;20043;-57
2023/01/28 12:08:55;;;;;;;9.98;7.32;;;5.20;99.90;;;;;;4976244;28;20050;-58
2023/01/28 12:12:12;;;;;;;12.23;7.47;;;5.20;99.90;;;;;;4960194;28;20081;-55
2023/01/28 12:15:08;;;;;;;11.05;7.60;;;5.20;99.90;;;;;;4991972;28;20065;-56
2023/01/28 12:17:39;;;;;;;13.05;8.48;;;5.20;99.90;;;;;;4955994;28;20043;-57
2023/01/28 12:20:17;;;;;;;9.13;6.28;;;5.20;99.90;;;;;;4952941;28;20046;-57
2023/01/28 12:23:08;;;;;;;11.43;6.75;;;5.40;99.90;;;;;;4959225;28;20074;-57
2023/01/28 12:26:05;;;;;;;11.90;7.10;;;5.50;99.90;;;;;;4990809;28;20442;-56
2023/01/28 12:29:00;;;;;;;21.15;8.30;;;5.70;99.90;;;;;;4990523;28;20155;-56
2023/01/28 12:31:26;;;;;;;11.68;6.78;;;5.90;99.90;;;;;;4960672;28;20213;-56
2023/01/28 12:34:01;;;;;;;10.02;5.80;;;6.10;99.90;;;;;;4994400;28;20050;-56
2023/01/28 12:36:39;;;;;;;9.98;6.40;;;6.20;99.90;;;;;;4940781;28;20043;-55
2023/01/28 12:39:10;;;;;;;10.23;6.00;;;6.30;99.90;;;;;;4970620;28;20457;-57
2023/01/28 12:41:44;;;;;;;9.55;5.45;;;6.30;99.90;;;;;;4992839;28;20042;-57
2023/01/28 12:44:22;;;;;;;20.83;6.72;;;6.30;99.90;;;;;;4961446;28;20070;-56
2023/01/28 12:46:56;;;;;;;11.93;5.90;;;6.40;99.90;;;;;;4992104;28;20050;-53
2023/01/28 12:49:28;;;;;;;10.35;6.05;;;6.50;99.90;;;;;;4992868;28;20043;-55
2023/01/28 12:52:40;;;;;;;9.30;5.82;;;6.40;99.90;;;;;;4959946;28;20143;-56
2023/01/28 12:55:20;;;;;;;7.35;4.75;;;6.40;99.90;;;;;;4977002;28;20042;-56
2023/01/28 12:57:47;;;;;;;8.65;5.95;;;6.40;99.90;;;;;;4944433;28;20122;-55
2023/01/28 13:00:28;;;;;;;9.40;4.82;;;6.20;99.90;;;;;;4960695;28;20579;-57
2023/01/28 13:03:30;;;;;;;11.23;5.00;;;6.00;99.90;;;;;;4990714;28;20261;-53
2023/01/28 13:06:08;;;;;;;11.55;5.20;;;5.90;99.90;;;;;;4959902;28;20031;-58
2023/01/28 13:08:33;;;;;;;14.85;5.63;;;5.90;99.90;;;;;;4957043;28;20506;-58
2023/01/28 13:11:01;;;;;;;8.85;4.93;;;6.00;99.90;;;;;;4987961;28;20223;-54
2023/01/28 13:13:33;;;;;;;12.48;4.70;;;6.00;99.90;;;;;;4985673;28;20038;-55
2023/01/28 13:16:03;;;;;;;9.50;5.82;;;6.00;99.90;;;;;;4987577;28;20042;-58
2023/01/28 13:18:38;;;;;;;10.93;6.05;;;6.00;99.90;;;;;;4977839;28;20049;-56
2023/01/28 13:21:06;;;;;;;9.27;5.35;;;6.00;99.90;;;;;;4992237;28;20088;-57
2023/01/28 13:23:43;;;;;;;11.98;6.38;;;6.00;99.90;;;;;;4958886;28;20482;-55
2023/01/28 13:26:17;;;;;;;9.95;5.70;;;5.90;99.90;;;;;;4947227;28;20035;-58
2023/01/28 13:28:44;;;;;;;9.18;5.60;;;5.80;99.90;;;;;;4985838;28;20042;-57
2023/01/28 13:31:16;;;;;;;9.23;5.95;;;5.80;99.90;;;;;;4952187;28;20055;-58
2023/01/28 13:33:46;;;;;;;9.68;5.78;;;5.80;99.90;;;;;;4961315;28;20569;-58
2023/01/28 13:36:17;;;;;;;8.27;4.72;;;5.80;99.90;;;;;;4994176;28;20482;-58
2023/01/28 13:38:44;;;;;;;8.77;5.10;;;5.90;99.90;;;;;;4973752;28;20043;-54